Norton, KS

4:13 AM CST on February 14, 2016 (GMT -0600)
NonFedAWOS | | Change Station
CLOSE
Current Station
Personal Weather Station
Location: Norton, KS
Elevation: 2382 ft
Nearby Weather Stations

Elev 2382 ft 39.85 °N, 99.89 °W | Updated 13 minutes ago

Clear
Clear
28 °F
Feels Like 18 °F
N
12
Wind Variable Wind from West
Gusts 0.0 mph

Today
High -- | Low -- °F
--% Chance of Precip.
Yesterday
High -- | Low -- °F
Precip. -- in
Pressure 30.03 in
Visibility 9.0 miles
Clouds Clear
Windchill 18 °F
Dew Point 25 °F
Humidity 86%
Rainfall in
Snow Depth Not available.
7:33 AM 6:14 PM
Waxing Crescent, 40% visible
METAR KHLC 140953Z AUTO 32008KT 9SM CLR M02/M05 A2997 RMK AO2 SLP168 T10221050
Pressure 30.03 in
Visibility 9.0 miles
Clouds Clear
Windchill 18 °F
Dew Point 25 °F
Humidity 86%
Rainfall in
Snow Depth Not available.
7:33 AM 6:14 PM
Waxing Crescent, 40% visible
METAR KHLC 140953Z AUTO 32008KT 9SM CLR M02/M05 A2997 RMK AO2 SLP168 T10221050

10-Day Weather Forecast

Almanac

Astronomy

Feb. 14, 2016 Rise Set
Actual Time
Civil Twilight
Nautical Twilight
Astronomical Twilight
Moon
Length of Visible Light
Length of Day
Tomorrow will be .
, % of the Moon is Illuminated

Today's Extremes

State Highs State Lows

Community

WunderPhotos

Upload Photos

1,892,765 photos uploaded!

WunderBlog® & News

Nearby

Air Quality

  Air Quality AQ Index Pollutant
Not available.

Snow Depth

Station Depth Elevation

Earthquake Activity

City Distance Mag. Time & Date
Minimum magnitude displayed is 2.5.

Coastal Water Temperatures

Place Temperature

Stations

Nearby Weather Stations

Station Location Temp. Windchill Dew Point Humidity Wind Precip. Elev Updated Type
                   

Watches & Warnings

There are currently no watches in effect.